Acton, California
Current Conditions -  °F | °C
As of 3:53 PM on Monday 20 Oct 2014 (Local Time) from KPMD Reporting Station
Clear Clear  
Wind Chill: 81°   Ceiling: Unl
Heat Index: 81°   Visibility: 10mi
Dew Point: 38°   Wind: 18mph
Humidity: 21%   Direction: 250°WSW
Pressure: 29.9"   Gusts: 26mph
Location:  34.47°N, 118.2°W
Report Text: KPMD 202253Z AUTO 25016G23KT 10SM CLR 27/03 A2990 RMK AO2 SLP101 T02720033 TSNO
Loading
Personal Weather Stations






























Interactive Weather Map New forecast layout! Learn more

10-Day Weather Forecast

Advertisements
Track Severe Weather on mobile